Hlavní strana
METAR-TAF:

METAR-TAF

Letiště :

Paganella, Itálie

zeměpisná šířka: 46-09N, zeměpisná délka: 011-02E, výška: 2125 m

Aktuální stav počasí

Zpráva byla vytvořena před 30 minutami, v 20:55 UTC
Jihozápadní vítr 15 kt
Teplota 10°C
Vlhkost vzduchu 66%
Tlak 1028 hPa
Viditelnost: 4000 m
Polojasno ve výšce 1500 ft, Cumulonimbus.
Polojasno ve výšce 2000 ft
bouřka, slabý déšť, kouřmo

METAR: LIVP 262055Z 23015KT 4000 -TSRA BR SCT015CB SCT020 10/04 Q1028 RMK BKN MON GEN INC VAL NIL VIS MIN 4000

Čas: 23:25 (21:25 UTC)


TAF: chybějící

Stav a předpovědi počasí z více než 4 000 letišť (zprávy METAR a TAF).

Červené a žluté tečky na mapě představují dostupné meteorologické stanice.

Když kurzor umístíte na tečku, zobrazí se název stanice.

Pak kliknutím zobrazíte stav a předpověď počasí.

Chcete-li změnit mapu, kliknutím na zelené tlačítko se znaménkem +mapu přiblížíte, kliknutím na zelené tlačítko se znaménkem – mapu oddálíte a kliknutím na zelené šipky přejdete na sousední mapy.


METAR-TAF: